createdAt,value
2022-08-05T00:01:36.268Z,4.70
2022-08-05T00:04:17.265Z,4.27
2022-08-05T00:06:47.033Z,4.80
2022-08-05T00:09:19.505Z,4.67
2022-08-05T00:11:55.308Z,4.67
2022-08-05T00:14:27.667Z,5.00
2022-08-05T00:16:58.171Z,4.93
2022-08-05T00:19:33.374Z,5.17
2022-08-05T00:22:02.953Z,4.20
2022-08-05T00:24:34.357Z,4.83
2022-08-05T00:27:04.718Z,5.10
2022-08-05T00:29:38.966Z,5.40
2022-08-05T00:32:12.924Z,5.67
2022-08-05T00:35:05.306Z,4.90
2022-08-05T00:37:50.603Z,5.10
2022-08-05T00:40:27.390Z,5.03
2022-08-05T00:42:58.971Z,4.80
2022-08-05T00:45:37.813Z,5.03
2022-08-05T00:48:11.993Z,4.90
2022-08-05T00:50:45.860Z,4.93
2022-08-05T00:54:01.084Z,5.70
2022-08-05T00:56:07.924Z,5.87
2022-08-05T00:58:36.953Z,4.90
2022-08-05T01:01:08.693Z,4.80
2022-08-05T01:03:38.504Z,4.60
2022-08-05T01:06:11.197Z,4.73
2022-08-05T01:08:44.107Z,5.07
2022-08-05T01:11:22.606Z,4.60
2022-08-05T01:14:03.988Z,5.10
2022-08-05T01:16:44.519Z,5.27
2022-08-05T01:19:36.598Z,5.43
2022-08-05T01:22:38.077Z,6.00
2022-08-05T01:25:40.106Z,5.10
2022-08-05T01:28:27.126Z,5.43
2022-08-05T01:31:00.312Z,5.10
2022-08-05T01:33:36.694Z,5.47
2022-08-05T01:36:13.157Z,5.93
2022-08-05T01:38:48.571Z,5.33
2022-08-05T01:41:22.706Z,5.03
2022-08-05T01:43:57.412Z,5.33
2022-08-05T01:46:41.926Z,5.70
2022-08-05T01:49:23.777Z,6.03
2022-08-05T01:51:56.201Z,5.07
2022-08-05T01:54:32.668Z,5.70
2022-08-05T01:58:13.860Z,5.70
2022-08-05T01:59:56.375Z,5.90
2022-08-05T02:02:30.453Z,5.90
2022-08-05T02:05:04.561Z,5.30
2022-08-05T02:07:47.267Z,4.77
2022-08-05T02:10:32.021Z,5.50
2022-08-05T02:13:16.347Z,5.80
2022-08-05T02:15:51.930Z,5.37
2022-08-05T02:18:33.259Z,6.13
2022-08-05T02:21:14.954Z,5.63
2022-08-05T02:23:47.422Z,6.93
2022-08-05T02:26:20.604Z,6.03
2022-08-05T02:28:51.124Z,5.73
2022-08-05T02:31:24.886Z,6.40
2022-08-05T02:33:59.130Z,5.80
2022-08-05T02:36:31.483Z,6.30
2022-08-05T02:39:01.657Z,6.33
2022-08-05T02:41:43.184Z,6.30
2022-08-05T02:44:22.539Z,5.40
2022-08-05T02:46:59.986Z,5.77
2022-08-05T02:49:35.748Z,6.00
2022-08-05T02:52:11.561Z,5.67
2022-08-05T02:54:51.156Z,5.70
2022-08-05T02:58:10.222Z,6.03
2022-08-05T03:00:13.149Z,7.30
2022-08-05T03:02:45.485Z,29.97
2022-08-05T03:05:14.819Z,5.57
2022-08-05T03:08:06.733Z,5.20
2022-08-05T03:10:32.930Z,6.40
2022-08-05T03:15:29.519Z,5.60
2022-08-05T03:17:59.561Z,6.00
2022-08-05T03:20:28.075Z,5.67
2022-08-05T03:22:58.078Z,6.50
2022-08-05T03:26:03.498Z,5.60
2022-08-05T03:28:18.640Z,6.27
2022-08-05T03:30:48.688Z,6.60
2022-08-05T03:33:19.679Z,7.40
2022-08-05T03:35:49.884Z,6.93
2022-08-05T03:38:32.674Z,6.33
2022-08-05T03:41:08.373Z,6.10
2022-08-05T03:44:08.168Z,6.30
2022-08-05T03:46:29.630Z,5.97
2022-08-05T03:49:02.057Z,6.57
2022-08-05T03:52:48.780Z,6.03
2022-08-05T03:55:51.626Z,7.03
2022-08-05T03:57:34.968Z,6.43
2022-08-05T04:00:15.907Z,6.13
2022-08-05T04:02:57.832Z,5.93
2022-08-05T04:05:33.421Z,6.17
2022-08-05T04:08:05.713Z,6.30
2022-08-05T04:10:53.634Z,5.80
2022-08-05T04:13:23.879Z,7.13
2022-08-05T04:16:04.570Z,5.60
2022-08-05T04:18:34.435Z,6.13
2022-08-05T04:21:07.153Z,6.33
2022-08-05T04:24:05.643Z,7.30
2022-08-05T04:26:32.320Z,7.00
2022-08-05T04:29:01.257Z,6.67
2022-08-05T04:31:38.701Z,6.77
2022-08-05T04:34:19.201Z,6.40
2022-08-05T04:36:58.278Z,7.13
2022-08-05T04:39:27.697Z,5.90
2022-08-05T04:41:56.468Z,6.60
2022-08-05T04:44:30.123Z,6.83
2022-08-05T04:46:59.707Z,7.33
2022-08-05T04:49:38.377Z,7.77
2022-08-05T04:52:18.820Z,7.33
2022-08-05T04:54:47.424Z,7.20
2022-08-05T04:57:18.212Z,6.73
2022-08-05T04:59:48.109Z,7.53
2022-08-05T05:02:37.196Z,7.80
2022-08-05T05:05:26.139Z,7.60
2022-08-05T05:08:01.664Z,7.33
2022-08-05T05:10:30.742Z,7.00
2022-08-05T05:13:03.663Z,7.30
2022-08-05T05:16:00.466Z,7.13
2022-08-05T05:18:31.425Z,6.60
2022-08-05T05:21:04.205Z,7.00
2022-08-05T05:24:01.977Z,6.47
2022-08-05T05:26:28.512Z,6.17
2022-08-05T05:29:02.291Z,5.57
2022-08-05T05:34:02.586Z,6.40
2022-08-05T05:36:31.714Z,6.53
2022-08-05T05:39:03.626Z,5.57
2022-08-05T05:41:40.932Z,5.47
2022-08-05T05:44:36.831Z,5.73
2022-08-05T05:47:04.658Z,6.70
2022-08-05T05:49:41.957Z,5.33
2022-08-05T05:52:20.218Z,5.87
2022-08-05T05:55:01.689Z,5.07
2022-08-05T05:57:42.799Z,5.27
2022-08-05T06:00:21.503Z,4.53
2022-08-05T06:03:01.591Z,4.43
2022-08-05T06:05:31.938Z,3.57
2022-08-05T06:08:01.937Z,4.23
2022-08-05T06:10:34.624Z,3.43
2022-08-05T06:13:06.409Z,3.67
2022-08-05T06:16:28.475Z,3.87
2022-08-05T06:18:31.336Z,4.10
2022-08-05T06:21:01.110Z,3.53
2022-08-05T06:23:32.219Z,3.30
2022-08-05T06:26:21.250Z,4.30
2022-08-05T06:28:52.398Z,3.90
2022-08-05T06:31:21.934Z,4.27
2022-08-05T06:34:07.433Z,3.90
2022-08-05T06:36:56.925Z,4.43
2022-08-05T06:39:27.225Z,3.80
2022-08-05T06:41:58.883Z,5.57
2022-08-05T06:44:28.143Z,4.40
2022-08-05T06:46:57.077Z,4.70
2022-08-05T06:50:01.402Z,5.33
2022-08-05T06:52:38.115Z,5.40
2022-08-05T06:55:03.837Z,5.23
2022-08-05T06:58:03.422Z,4.80
2022-08-05T07:00:24.916Z,5.73
2022-08-05T07:02:54.588Z,6.30
2022-08-05T07:05:36.930Z,5.23
2022-08-05T07:08:10.972Z,5.77
2022-08-05T07:10:53.023Z,5.70
2022-08-05T07:13:57.628Z,6.47
2022-08-05T07:18:01.614Z,5.10
2022-08-05T07:22:28.443Z,5.80
2022-08-05T07:24:59.555Z,5.67
2022-08-05T07:27:58.398Z,5.77
2022-08-05T07:30:33.994Z,5.97
2022-08-05T07:33:05.105Z,5.40
2022-08-05T07:36:02.655Z,6.00
2022-08-05T07:38:33.599Z,5.70
2022-08-05T07:41:34.980Z,5.90
2022-08-05T07:43:56.390Z,6.57
2022-08-05T07:46:27.710Z,6.30
2022-08-05T07:49:04.288Z,6.07
2022-08-05T07:51:48.615Z,6.27
2022-08-05T07:54:30.327Z,6.00
2022-08-05T07:57:17.644Z,5.13
2022-08-05T07:59:54.925Z,5.77
2022-08-05T08:03:13.386Z,5.90
2022-08-05T08:05:53.543Z,5.97
2022-08-05T08:08:22.152Z,5.90
2022-08-05T08:10:58.510Z,5.50
2022-08-05T08:13:42.927Z,5.27
2022-08-05T08:16:50.397Z,6.30
2022-08-05T08:20:21.587Z,5.20
2022-08-05T08:22:15.854Z,5.70
2022-08-05T08:24:52.161Z,5.07
2022-08-05T08:27:47.680Z,6.00
2022-08-05T08:30:39.313Z,6.77
2022-08-05T08:33:16.765Z,5.83
2022-08-05T08:35:53.137Z,7.27
2022-08-05T08:38:37.595Z,6.27
2022-08-05T08:41:08.788Z,6.23
2022-08-05T08:45:23.097Z,6.13
2022-08-05T08:46:31.289Z,6.57
2022-08-05T08:50:03.945Z,6.30
2022-08-05T08:52:04.221Z,6.47
2022-08-05T08:54:36.735Z,6.53
2022-08-05T08:57:11.297Z,5.57
2022-08-05T08:59:41.945Z,6.37
2022-08-05T09:02:17.403Z,5.50
2022-08-05T09:04:47.710Z,5.70
2022-08-05T09:07:40.132Z,5.97
2022-08-05T09:10:27.672Z,6.97
2022-08-05T09:12:56.933Z,7.27
2022-08-05T09:15:36.763Z,6.40
2022-08-05T09:18:08.883Z,6.20
2022-08-05T09:20:38.628Z,6.43
2022-08-05T09:23:18.746Z,6.30
2022-08-05T09:26:00.052Z,5.93
2022-08-05T09:28:34.068Z,6.77
2022-08-05T09:31:22.277Z,6.87
2022-08-05T09:33:56.748Z,5.90
2022-08-05T09:36:27.661Z,6.07
2022-08-05T09:39:18.108Z,6.17
2022-08-05T09:42:01.811Z,6.67
2022-08-05T09:44:36.962Z,6.53
2022-08-05T09:47:15.776Z,6.50
2022-08-05T09:50:00.586Z,6.10
2022-08-05T09:52:32.320Z,6.37
2022-08-05T09:55:58.343Z,6.33
2022-08-05T09:57:58.546Z,6.97
2022-08-05T10:00:29.611Z,5.50
2022-08-05T10:02:59.533Z,7.00
2022-08-05T10:05:32.813Z,7.43
2022-08-05T10:08:36.053Z,6.90
2022-08-05T10:10:54.274Z,6.83
2022-08-05T10:13:47.883Z,7.10
2022-08-05T10:16:42.063Z,6.27
2022-08-05T10:19:23.821Z,7.40
2022-08-05T10:22:15.674Z,7.07
2022-08-05T10:24:58.913Z,6.60
2022-08-05T10:28:09.266Z,6.23
2022-08-05T10:31:20.710Z,6.63
2022-08-05T10:33:14.571Z,7.40
2022-08-05T10:35:44.371Z,6.67
2022-08-05T10:38:15.085Z,5.90
2022-08-05T10:40:59.667Z,6.13
2022-08-05T10:43:44.271Z,6.80
2022-08-05T10:46:18.089Z,6.37
2022-08-05T10:48:56.983Z,5.80
2022-08-05T10:51:53.092Z,6.20
2022-08-05T10:54:56.976Z,6.33
2022-08-05T10:57:34.222Z,6.80
2022-08-05T11:00:19.067Z,6.50
2022-08-05T11:03:24.624Z,5.67
2022-08-05T11:06:15.493Z,6.87
2022-08-05T11:09:39.080Z,5.90
2022-08-05T11:12:50.325Z,6.30
2022-08-05T11:16:01.118Z,6.80
2022-08-05T11:18:30.184Z,5.67
2022-08-05T11:21:02.900Z,5.37
2022-08-05T11:24:04.750Z,5.90
2022-08-05T11:26:33.660Z,5.67
2022-08-05T11:29:13.069Z,5.47
2022-08-05T11:31:58.022Z,6.07
2022-08-05T11:34:52.095Z,5.20
2022-08-05T11:38:29.001Z,5.00
2022-08-05T11:41:15.471Z,4.93
2022-08-05T11:44:05.044Z,4.80
2022-08-05T11:46:37.564Z,5.07
2022-08-05T11:49:10.230Z,4.50
2022-08-05T11:51:44.411Z,4.30
2022-08-05T11:54:34.020Z,5.13
2022-08-05T11:57:08.235Z,4.90
2022-08-05T11:59:53.442Z,4.37
2022-08-05T12:02:31.286Z,4.27
2022-08-05T12:05:07.582Z,4.77
2022-08-05T12:08:07.463Z,4.20
2022-08-05T12:10:43.454Z,4.40
2022-08-05T12:13:28.104Z,4.23
2022-08-05T12:16:14.732Z,4.40
2022-08-05T12:18:52.338Z,3.80
2022-08-05T12:21:26.830Z,4.27
2022-08-05T12:24:04.990Z,3.90
2022-08-05T12:26:35.430Z,3.73
2022-08-05T12:29:05.559Z,4.40
2022-08-05T12:31:46.246Z,3.70
2022-08-05T12:34:23.607Z,3.67
2022-08-05T12:36:56.327Z,4.10
2022-08-05T12:39:27.975Z,4.10
2022-08-05T12:42:03.495Z,3.77
2022-08-05T12:44:33.757Z,4.60
2022-08-05T12:47:04.386Z,4.00
2022-08-05T12:50:03.419Z,3.20
2022-08-05T12:52:38.700Z,3.73
2022-08-05T12:55:22.197Z,3.73
2022-08-05T12:58:48.551Z,3.67
2022-08-05T13:02:01.736Z,3.67
2022-08-05T13:03:33.612Z,3.87
2022-08-05T13:06:10.446Z,3.50
2022-08-05T13:08:41.885Z,3.77
2022-08-05T13:11:59.709Z,3.40
2022-08-05T13:14:19.602Z,3.80
2022-08-05T13:16:50.114Z,6.57
2022-08-05T13:19:21.381Z,3.57
2022-08-05T13:21:55.955Z,3.90
2022-08-05T13:24:36.227Z,3.40
2022-08-05T13:27:38.148Z,3.50
2022-08-05T13:30:35.066Z,3.43
2022-08-05T13:33:01.096Z,3.53
2022-08-05T13:35:42.774Z,3.77
2022-08-05T13:38:28.388Z,3.30
2022-08-05T13:41:01.293Z,4.33
2022-08-05T13:43:44.682Z,3.17
2022-08-05T13:46:30.804Z,4.67
2022-08-05T13:49:10.405Z,3.13
2022-08-05T13:51:46.371Z,3.10
2022-08-05T13:54:16.622Z,3.30
2022-08-05T13:56:50.978Z,3.20
2022-08-05T13:59:23.998Z,3.60
2022-08-05T14:01:56.815Z,3.07
2022-08-05T14:04:50.085Z,3.10
2022-08-05T14:07:56.428Z,3.40
2022-08-05T14:10:12.062Z,3.37
2022-08-05T14:12:42.738Z,3.10
2022-08-05T14:16:05.754Z,2.73
2022-08-05T14:18:05.918Z,3.10
2022-08-05T14:20:47.169Z,3.43
2022-08-05T14:23:24.568Z,2.93
2022-08-05T14:25:53.848Z,3.30
2022-08-05T14:28:26.923Z,3.40
2022-08-05T14:30:55.757Z,3.40
2022-08-05T14:33:24.423Z,3.57
2022-08-05T14:35:54.341Z,2.87
2022-08-05T14:38:27.844Z,3.57
2022-08-05T14:41:06.382Z,3.57
2022-08-05T14:43:57.778Z,3.03
2022-08-05T14:46:29.076Z,3.40
2022-08-05T14:49:06.734Z,4.03
2022-08-05T14:51:37.670Z,3.60
2022-08-05T14:54:27.547Z,3.80
2022-08-05T14:56:56.322Z,3.47
2022-08-05T14:59:29.454Z,3.60
2022-08-05T15:02:03.966Z,3.60
2022-08-05T15:04:44.967Z,3.30
2022-08-05T15:08:10.744Z,3.57
2022-08-05T15:10:05.835Z,3.40
2022-08-05T15:12:57.960Z,2.60
2022-08-05T15:15:55.866Z,3.60
2022-08-05T15:18:17.738Z,3.30
2022-08-05T15:20:46.308Z,3.87
2022-08-05T15:23:15.685Z,3.30
2022-08-05T15:25:52.098Z,3.23
2022-08-05T15:28:27.300Z,3.50
2022-08-05T15:30:58.078Z,3.20
2022-08-05T15:34:04.813Z,3.47
2022-08-05T15:36:17.267Z,3.00
2022-08-05T15:41:01.607Z,3.70
2022-08-05T15:41:56.014Z,3.27
2022-08-05T15:44:30.047Z,3.40
2022-08-05T15:47:03.765Z,3.10
2022-08-05T15:49:53.370Z,3.50
2022-08-05T15:52:29.610Z,3.30
2022-08-05T15:55:16.147Z,3.20
2022-08-05T15:57:45.837Z,2.80
2022-08-05T16:00:26.137Z,3.97
2022-08-05T16:03:02.825Z,3.50
2022-08-05T16:05:31.692Z,3.53
2022-08-05T16:08:00.284Z,3.40
2022-08-05T16:10:28.852Z,4.20
2022-08-05T16:12:57.879Z,4.07
2022-08-05T16:15:32.476Z,3.33
2022-08-05T16:18:04.057Z,3.73
2022-08-05T16:20:33.078Z,3.23
2022-08-05T16:23:03.631Z,2.77
2022-08-05T16:25:34.112Z,3.50
2022-08-05T16:28:05.966Z,3.80
2022-08-05T16:30:36.189Z,4.47
2022-08-05T16:33:06.442Z,3.47
2022-08-05T16:35:42.359Z,3.57
2022-08-05T16:38:23.747Z,3.50
2022-08-05T16:40:59.897Z,3.70
2022-08-05T16:43:31.281Z,3.67
2022-08-05T16:46:03.824Z,3.37
2022-08-05T16:48:38.993Z,3.80
2022-08-05T16:51:09.904Z,3.60
2022-08-05T16:54:05.243Z,3.30
2022-08-05T16:56:30.124Z,3.10
2022-08-05T16:59:00.918Z,2.73
2022-08-05T17:01:54.842Z,2.97
2022-08-05T17:04:27.214Z,2.70
2022-08-05T17:07:00.881Z,2.60
2022-08-05T17:09:57.527Z,1.90
2022-08-05T17:12:22.600Z,3.17
2022-08-05T17:14:51.520Z,2.40
2022-08-05T17:17:20.208Z,2.30
2022-08-05T17:19:55.567Z,2.60
2022-08-05T17:22:25.947Z,2.87
2022-08-05T17:24:56.978Z,3.50
2022-08-05T17:27:33.731Z,3.53
2022-08-05T17:30:04.834Z,3.40
2022-08-05T17:32:42.150Z,3.73
2022-08-05T17:35:15.417Z,4.97
2022-08-05T17:37:45.539Z,2.87
2022-08-05T17:40:22.649Z,2.60
2022-08-05T17:42:53.545Z,2.40
2022-08-05T17:45:24.988Z,3.20
2022-08-05T17:47:56.259Z,3.30
2022-08-05T17:50:28.150Z,2.97
2022-08-05T17:52:59.949Z,3.43
2022-08-05T17:55:37.570Z,2.70
2022-08-05T17:58:10.860Z,4.27
2022-08-05T18:00:44.307Z,4.00
2022-08-05T18:03:28.152Z,4.27
2022-08-05T18:06:11.232Z,4.77
2022-08-05T18:08:44.711Z,4.20
2022-08-05T18:11:24.668Z,5.37
2022-08-05T18:14:03.295Z,5.90
2022-08-05T18:16:32.793Z,5.50
2022-08-05T18:19:01.462Z,6.40
2022-08-05T18:22:09.520Z,3.33
2022-08-05T18:24:20.987Z,6.73
2022-08-05T18:26:49.865Z,6.93
2022-08-05T18:29:40.238Z,5.33
2022-08-05T18:32:07.561Z,5.47
2022-08-05T18:34:42.782Z,5.80
2022-08-05T18:37:34.494Z,8.10
2022-08-05T18:40:31.591Z,4.60
2022-08-05T18:42:50.192Z,7.07
2022-08-05T18:45:20.611Z,7.20
2022-08-05T18:47:56.397Z,7.97
2022-08-05T18:50:46.432Z,7.90
2022-08-05T18:53:20.523Z,6.80
2022-08-05T18:55:53.249Z,5.43
2022-08-05T18:58:28.696Z,6.23
2022-08-05T19:00:57.897Z,7.27
2022-08-05T19:03:55.465Z,5.87
2022-08-05T19:06:21.717Z,5.80
2022-08-05T19:08:52.129Z,5.27
2022-08-05T19:11:27.905Z,6.10
2022-08-05T19:14:00.631Z,5.10
2022-08-05T19:16:35.314Z,5.40
2022-08-05T19:19:15.632Z,5.23
2022-08-05T19:21:51.530Z,5.57
2022-08-05T19:24:34.410Z,4.83
2022-08-05T19:27:03.952Z,4.90
2022-08-05T19:29:36.050Z,5.60
2022-08-05T19:32:11.145Z,4.43
2022-08-05T19:34:40.431Z,3.17
2022-08-05T19:37:09.990Z,4.17
2022-08-05T19:39:45.599Z,4.67
2022-08-05T19:42:35.308Z,4.10
2022-08-05T19:45:06.568Z,2.70
2022-08-05T19:47:37.590Z,2.90
2022-08-05T19:50:07.924Z,2.67
2022-08-05T19:52:39.113Z,2.90
2022-08-05T19:56:11.568Z,2.17
2022-08-05T19:58:19.531Z,2.20
2022-08-05T20:00:49.125Z,2.27
2022-08-05T20:03:17.729Z,2.17
2022-08-05T20:05:51.148Z,1.60
2022-08-05T20:08:20.710Z,1.97
2022-08-05T20:10:59.588Z,1.60
2022-08-05T20:13:59.050Z,1.70
2022-08-05T20:16:24.909Z,1.57
2022-08-05T20:18:55.434Z,1.33
2022-08-05T20:21:25.485Z,1.10
2022-08-05T20:23:54.387Z,1.53
2022-08-05T20:26:26.528Z,1.10
2022-08-05T20:28:57.460Z,1.20
2022-08-05T20:31:43.112Z,1.53
2022-08-05T20:34:18.486Z,1.27
2022-08-05T20:36:48.606Z,1.60
2022-08-05T20:39:18.636Z,1.80
2022-08-05T20:41:49.146Z,1.43
2022-08-05T20:44:29.156Z,1.47
2022-08-05T20:46:59.154Z,1.57
2022-08-05T20:49:30.506Z,1.90
2022-08-05T20:52:07.008Z,1.17
2022-08-05T20:54:43.413Z,1.47
2022-08-05T20:57:43.963Z,1.00
2022-08-05T21:00:40.459Z,1.57
2022-08-05T21:03:06.857Z,1.80
2022-08-05T21:05:53.551Z,2.03
2022-08-05T21:08:26.652Z,1.67
2022-08-05T21:11:10.085Z,1.60
2022-08-05T21:13:55.566Z,1.00
2022-08-05T21:16:30.134Z,2.00
2022-08-05T21:19:00.003Z,1.40
2022-08-05T21:21:43.768Z,1.67
2022-08-05T21:24:19.580Z,1.80
2022-08-05T21:26:53.395Z,1.93
2022-08-05T21:29:31.717Z,1.50
2022-08-05T21:32:02.218Z,1.80
2022-08-05T21:34:31.662Z,2.60
2022-08-05T21:37:01.832Z,2.00
2022-08-05T21:39:31.141Z,1.80
2022-08-05T21:42:03.711Z,2.17
2022-08-05T21:44:35.243Z,1.37
2022-08-05T21:47:06.080Z,1.40
2022-08-05T21:49:56.624Z,2.07
2022-08-05T21:52:29.123Z,1.90
2022-08-05T21:55:06.930Z,4.00
2022-08-05T21:57:36.350Z,2.60
2022-08-05T22:00:14.509Z,3.70
2022-08-05T22:02:43.756Z,2.70
2022-08-05T22:05:12.946Z,2.80
2022-08-05T22:07:58.168Z,2.43
2022-08-05T22:10:28.241Z,1.97
2022-08-05T22:12:59.006Z,2.70
2022-08-05T22:16:02.383Z,1.77
2022-08-05T22:18:27.593Z,2.10
2022-08-05T22:20:58.605Z,1.50
2022-08-05T22:24:02.128Z,1.40
2022-08-05T22:26:50.414Z,1.70
2022-08-05T22:29:26.112Z,3.20
2022-08-05T22:32:02.581Z,1.90
2022-08-05T22:34:32.479Z,2.10
2022-08-05T22:37:03.950Z,2.47
2022-08-05T22:39:34.544Z,2.10
2022-08-05T22:42:11.473Z,2.40
2022-08-05T22:44:48.450Z,2.17
2022-08-05T22:47:29.596Z,1.90
2022-08-05T22:50:20.885Z,2.43
2022-08-05T22:52:53.849Z,2.50
2022-08-05T22:55:24.357Z,2.40
2022-08-05T22:57:55.950Z,2.50
2022-08-05T23:00:27.286Z,2.53
2022-08-05T23:02:58.109Z,3.17
2022-08-05T23:05:26.988Z,2.70
2022-08-05T23:07:55.907Z,3.00
2022-08-05T23:10:24.759Z,2.53
2022-08-05T23:12:55.549Z,2.67
2022-08-05T23:15:26.988Z,2.77
2022-08-05T23:18:03.514Z,2.87
2022-08-05T23:20:37.327Z,2.63
2022-08-05T23:23:07.986Z,3.10
2022-08-05T23:25:50.923Z,3.57
2022-08-05T23:28:24.040Z,2.80
2022-08-05T23:31:02.257Z,3.13
2022-08-05T23:34:03.805Z,3.40
2022-08-05T23:36:38.593Z,3.70
2022-08-05T23:39:08.547Z,3.60
2022-08-05T23:41:41.107Z,4.30
2022-08-05T23:44:19.754Z,4.27
2022-08-05T23:46:51.590Z,4.50
2022-08-05T23:49:33.878Z,4.00
2022-08-05T23:52:25.898Z,3.80
2022-08-05T23:54:57.406Z,3.33
2022-08-05T23:57:28.235Z,3.90
